sensor_id;sensor_type;location;lat;lon;timestamp;P1;durP1;ratioP1;P2;durP2;ratioP2
17796;SDS011;55596;53.554;9.916;2022-11-11T00:00:15;10.90;;;2.33;;
17796;SDS011;55596;53.554;9.916;2022-11-11T00:02:43;9.20;;;2.27;;
17796;SDS011;55596;53.554;9.916;2022-11-11T00:05:09;7.03;;;2.40;;
17796;SDS011;55596;53.554;9.916;2022-11-11T00:07:38;11.40;;;2.90;;
17796;SDS011;55596;53.554;9.916;2022-11-11T00:10:05;6.93;;;2.43;;
17796;SDS011;55596;53.554;9.916;2022-11-11T00:12:33;8.97;;;2.60;;
17796;SDS011;55596;53.554;9.916;2022-11-11T00:15:00;8.27;;;2.53;;
17796;SDS011;55596;53.554;9.916;2022-11-11T00:17:27;9.67;;;2.57;;
17796;SDS011;55596;53.554;9.916;2022-11-11T00:20:11;12.77;;;2.87;;
17796;SDS011;55596;53.554;9.916;2022-11-11T00:22:58;13.83;;;3.10;;
17796;SDS011;55596;53.554;9.916;2022-11-11T00:25:42;13.70;;;3.23;;
17796;SDS011;55596;53.554;9.916;2022-11-11T00:28:09;7.97;;;3.47;;
17796;SDS011;55596;53.554;9.916;2022-11-11T00:30:36;8.90;;;3.80;;
17796;SDS011;55596;53.554;9.916;2022-11-11T00:33:03;9.40;;;3.80;;
17796;SDS011;55596;53.554;9.916;2022-11-11T00:35:30;10.77;;;3.67;;
17796;SDS011;55596;53.554;9.916;2022-11-11T00:38:15;13.43;;;4.70;;
17796;SDS011;55596;53.554;9.916;2022-11-11T00:40:56;8.57;;;3.77;;
17796;SDS011;55596;53.554;9.916;2022-11-11T00:43:23;9.33;;;3.87;;
17796;SDS011;55596;53.554;9.916;2022-11-11T00:45:52;8.90;;;3.47;;
17796;SDS011;55596;53.554;9.916;2022-11-11T00:48:39;13.67;;;3.80;;
17796;SDS011;55596;53.554;9.916;2022-11-11T00:51:24;14.33;;;4.17;;
17796;SDS011;55596;53.554;9.916;2022-11-11T00:53:52;11.17;;;4.20;;
17796;SDS011;55596;53.554;9.916;2022-11-11T00:56:19;13.27;;;4.33;;
17796;SDS011;55596;53.554;9.916;2022-11-11T00:58:46;9.87;;;4.17;;
17796;SDS011;55596;53.554;9.916;2022-11-11T01:01:13;10.63;;;4.03;;
17796;SDS011;55596;53.554;9.916;2022-11-11T01:03:41;11.77;;;4.30;;
17796;SDS011;55596;53.554;9.916;2022-11-11T01:06:08;13.73;;;4.57;;
17796;SDS011;55596;53.554;9.916;2022-11-11T01:08:36;12.17;;;4.53;;
17796;SDS011;55596;53.554;9.916;2022-11-11T01:11:09;14.67;;;4.20;;
17796;SDS011;55596;53.554;9.916;2022-11-11T01:13:38;11.10;;;4.40;;
17796;SDS011;55596;53.554;9.916;2022-11-11T01:16:05;10.60;;;5.20;;
17796;SDS011;55596;53.554;9.916;2022-11-11T01:18:33;11.43;;;4.07;;
17796;SDS011;55596;53.554;9.916;2022-11-11T01:21:00;11.20;;;4.10;;
17796;SDS011;55596;53.554;9.916;2022-11-11T01:23:30;9.50;;;4.37;;
17796;SDS011;55596;53.554;9.916;2022-11-11T01:26:02;13.43;;;5.23;;
17796;SDS011;55596;53.554;9.916;2022-11-11T01:28:31;11.13;;;4.40;;
17796;SDS011;55596;53.554;9.916;2022-11-11T01:31:02;10.97;;;5.13;;
17796;SDS011;55596;53.554;9.916;2022-11-11T01:33:29;13.10;;;4.83;;
17796;SDS011;55596;53.554;9.916;2022-11-11T01:36:01;12.20;;;4.10;;
17796;SDS011;55596;53.554;9.916;2022-11-11T01:38:29;10.10;;;4.23;;
17796;SDS011;55596;53.554;9.916;2022-11-11T01:40:57;8.87;;;4.03;;
17796;SDS011;55596;53.554;9.916;2022-11-11T01:43:24;21.90;;;4.97;;
17796;SDS011;55596;53.554;9.916;2022-11-11T01:45:54;11.00;;;4.33;;
17796;SDS011;55596;53.554;9.916;2022-11-11T01:48:28;11.13;;;3.80;;
17796;SDS011;55596;53.554;9.916;2022-11-11T01:51:22;13.13;;;4.23;;
17796;SDS011;55596;53.554;9.916;2022-11-11T01:53:54;14.43;;;4.30;;
17796;SDS011;55596;53.554;9.916;2022-11-11T01:56:24;11.87;;;4.43;;
17796;SDS011;55596;53.554;9.916;2022-11-11T01:58:54;9.77;;;4.33;;
17796;SDS011;55596;53.554;9.916;2022-11-11T02:01:25;12.13;;;3.90;;
17796;SDS011;55596;53.554;9.916;2022-11-11T02:03:52;12.73;;;4.23;;
17796;SDS011;55596;53.554;9.916;2022-11-11T02:06:39;13.10;;;4.67;;
17796;SDS011;55596;53.554;9.916;2022-11-11T02:09:06;14.10;;;4.60;;
17796;SDS011;55596;53.554;9.916;2022-11-11T02:11:33;11.33;;;4.50;;
17796;SDS011;55596;53.554;9.916;2022-11-11T02:14:21;13.70;;;4.37;;
17796;SDS011;55596;53.554;9.916;2022-11-11T02:17:08;12.70;;;4.20;;
17796;SDS011;55596;53.554;9.916;2022-11-11T02:19:41;10.87;;;5.03;;
17796;SDS011;55596;53.554;9.916;2022-11-11T02:22:12;12.77;;;4.20;;
17796;SDS011;55596;53.554;9.916;2022-11-11T02:24:46;11.20;;;4.27;;
17796;SDS011;55596;53.554;9.916;2022-11-11T02:27:14;10.93;;;4.20;;
17796;SDS011;55596;53.554;9.916;2022-11-11T02:29:45;10.03;;;4.60;;
17796;SDS011;55596;53.554;9.916;2022-11-11T02:32:15;8.23;;;3.97;;
17796;SDS011;55596;53.554;9.916;2022-11-11T02:34:42;11.43;;;4.03;;
17796;SDS011;55596;53.554;9.916;2022-11-11T02:37:08;7.70;;;3.90;;
17796;SDS011;55596;53.554;9.916;2022-11-11T02:39:36;10.30;;;4.10;;
17796;SDS011;55596;53.554;9.916;2022-11-11T02:42:08;9.90;;;4.17;;
17796;SDS011;55596;53.554;9.916;2022-11-11T02:44:38;11.23;;;4.23;;
17796;SDS011;55596;53.554;9.916;2022-11-11T02:47:05;13.53;;;4.47;;
17796;SDS011;55596;53.554;9.916;2022-11-11T02:49:32;9.73;;;3.60;;
17796;SDS011;55596;53.554;9.916;2022-11-11T02:51:59;11.13;;;4.47;;
17796;SDS011;55596;53.554;9.916;2022-11-11T02:54:26;10.87;;;4.13;;
17796;SDS011;55596;53.554;9.916;2022-11-11T02:56:53;11.27;;;4.70;;
17796;SDS011;55596;53.554;9.916;2022-11-11T02:59:33;12.97;;;4.60;;
17796;SDS011;55596;53.554;9.916;2022-11-11T03:02:02;9.53;;;4.23;;
17796;SDS011;55596;53.554;9.916;2022-11-11T03:04:29;14.13;;;4.70;;
17796;SDS011;55596;53.554;9.916;2022-11-11T03:06:56;12.43;;;4.70;;
17796;SDS011;55596;53.554;9.916;2022-11-11T03:09:23;9.70;;;4.40;;
17796;SDS011;55596;53.554;9.916;2022-11-11T03:11:50;14.77;;;4.30;;
17796;SDS011;55596;53.554;9.916;2022-11-11T03:14:16;10.03;;;3.90;;
17796;SDS011;55596;53.554;9.916;2022-11-11T03:16:45;11.03;;;4.10;;
17796;SDS011;55596;53.554;9.916;2022-11-11T03:19:29;10.37;;;4.40;;
17796;SDS011;55596;53.554;9.916;2022-11-11T03:21:56;15.37;;;4.37;;
17796;SDS011;55596;53.554;9.916;2022-11-11T03:24:22;11.53;;;3.90;;
17796;SDS011;55596;53.554;9.916;2022-11-11T03:27:09;8.73;;;4.17;;
17796;SDS011;55596;53.554;9.916;2022-11-11T03:29:37;11.90;;;4.50;;
17796;SDS011;55596;53.554;9.916;2022-11-11T03:32:05;12.57;;;4.43;;
17796;SDS011;55596;53.554;9.916;2022-11-11T03:34:33;11.20;;;4.40;;
17796;SDS011;55596;53.554;9.916;2022-11-11T03:37:00;10.80;;;4.37;;
17796;SDS011;55596;53.554;9.916;2022-11-11T03:39:44;11.20;;;4.73;;
17796;SDS011;55596;53.554;9.916;2022-11-11T03:42:11;10.97;;;4.63;;
17796;SDS011;55596;53.554;9.916;2022-11-11T03:44:38;10.73;;;4.00;;
17796;SDS011;55596;53.554;9.916;2022-11-11T03:47:06;10.17;;;4.13;;
17796;SDS011;55596;53.554;9.916;2022-11-11T03:49:33;14.20;;;4.80;;
17796;SDS011;55596;53.554;9.916;2022-11-11T03:52:00;13.10;;;4.23;;
17796;SDS011;55596;53.554;9.916;2022-11-11T03:54:27;11.93;;;4.67;;
17796;SDS011;55596;53.554;9.916;2022-11-11T03:56:54;9.43;;;4.40;;
17796;SDS011;55596;53.554;9.916;2022-11-11T03:59:42;9.53;;;4.30;;
17796;SDS011;55596;53.554;9.916;2022-11-11T04:02:11;12.17;;;4.63;;
17796;SDS011;55596;53.554;9.916;2022-11-11T04:04:57;10.80;;;4.73;;
17796;SDS011;55596;53.554;9.916;2022-11-11T04:07:41;12.07;;;4.30;;
17796;SDS011;55596;53.554;9.916;2022-11-11T04:10:27;9.17;;;4.00;;
17796;SDS011;55596;53.554;9.916;2022-11-11T04:12:55;9.57;;;4.63;;
17796;SDS011;55596;53.554;9.916;2022-11-11T04:15:41;8.00;;;4.40;;
17796;SDS011;55596;53.554;9.916;2022-11-11T04:18:32;9.83;;;4.70;;
17796;SDS011;55596;53.554;9.916;2022-11-11T04:21:16;13.63;;;5.03;;
17796;SDS011;55596;53.554;9.916;2022-11-11T04:24:06;13.77;;;4.50;;
17796;SDS011;55596;53.554;9.916;2022-11-11T04:26:47;18.97;;;5.33;;
17796;SDS011;55596;53.554;9.916;2022-11-11T04:29:14;9.90;;;4.80;;
17796;SDS011;55596;53.554;9.916;2022-11-11T04:31:52;13.40;;;5.30;;
17796;SDS011;55596;53.554;9.916;2022-11-11T04:34:39;11.83;;;5.10;;
17796;SDS011;55596;53.554;9.916;2022-11-11T04:37:05;13.70;;;5.53;;
17796;SDS011;55596;53.554;9.916;2022-11-11T04:39:32;11.87;;;4.80;;
17796;SDS011;55596;53.554;9.916;2022-11-11T04:42:16;12.93;;;5.23;;
17796;SDS011;55596;53.554;9.916;2022-11-11T04:44:43;15.07;;;5.50;;
17796;SDS011;55596;53.554;9.916;2022-11-11T04:47:27;11.00;;;5.33;;
17796;SDS011;55596;53.554;9.916;2022-11-11T04:49:56;10.67;;;5.00;;
17796;SDS011;55596;53.554;9.916;2022-11-11T04:52:23;12.40;;;5.27;;
17796;SDS011;55596;53.554;9.916;2022-11-11T04:54:53;11.10;;;5.60;;
17796;SDS011;55596;53.554;9.916;2022-11-11T04:57:38;9.87;;;5.07;;
17796;SDS011;55596;53.554;9.916;2022-11-11T05:00:07;12.83;;;5.23;;
17796;SDS011;55596;53.554;9.916;2022-11-11T05:02:35;9.10;;;4.87;;
17796;SDS011;55596;53.554;9.916;2022-11-11T05:05:21;8.87;;;5.10;;
17796;SDS011;55596;53.554;9.916;2022-11-11T05:07:48;12.23;;;5.67;;
17796;SDS011;55596;53.554;9.916;2022-11-11T05:10:33;16.93;;;4.97;;
17796;SDS011;55596;53.554;9.916;2022-11-11T05:13:00;16.07;;;5.43;;
17796;SDS011;55596;53.554;9.916;2022-11-11T05:15:44;13.63;;;5.30;;
17796;SDS011;55596;53.554;9.916;2022-11-11T05:18:28;12.30;;;5.30;;
17796;SDS011;55596;53.554;9.916;2022-11-11T05:21:15;17.70;;;5.60;;
17796;SDS011;55596;53.554;9.916;2022-11-11T05:23:47;12.10;;;5.13;;
17796;SDS011;55596;53.554;9.916;2022-11-11T05:26:32;12.77;;;5.43;;
17796;SDS011;55596;53.554;9.916;2022-11-11T05:28:59;13.53;;;5.87;;
17796;SDS011;55596;53.554;9.916;2022-11-11T05:31:26;12.80;;;5.73;;
17796;SDS011;55596;53.554;9.916;2022-11-11T05:33:53;11.93;;;5.70;;
17796;SDS011;55596;53.554;9.916;2022-11-11T05:36:22;11.70;;;6.53;;
17796;SDS011;55596;53.554;9.916;2022-11-11T05:38:49;13.57;;;5.57;;
17796;SDS011;55596;53.554;9.916;2022-11-11T05:41:16;14.73;;;6.30;;
17796;SDS011;55596;53.554;9.916;2022-11-11T05:43:43;16.23;;;6.23;;
17796;SDS011;55596;53.554;9.916;2022-11-11T05:46:10;13.93;;;6.77;;
17796;SDS011;55596;53.554;9.916;2022-11-11T05:48:37;13.23;;;6.93;;
17796;SDS011;55596;53.554;9.916;2022-11-11T05:51:26;13.53;;;6.60;;
17796;SDS011;55596;53.554;9.916;2022-11-11T05:53:56;12.23;;;6.40;;
17796;SDS011;55596;53.554;9.916;2022-11-11T05:56:23;14.63;;;7.70;;
17796;SDS011;55596;53.554;9.916;2022-11-11T05:58:50;15.27;;;7.00;;
17796;SDS011;55596;53.554;9.916;2022-11-11T06:01:17;14.30;;;7.53;;
17796;SDS011;55596;53.554;9.916;2022-11-11T06:03:44;13.23;;;7.50;;
17796;SDS011;55596;53.554;9.916;2022-11-11T06:06:14;18.03;;;7.93;;
17796;SDS011;55596;53.554;9.916;2022-11-11T06:08:42;18.97;;;7.77;;
17796;SDS011;55596;53.554;9.916;2022-11-11T06:11:10;19.20;;;8.30;;
17796;SDS011;55596;53.554;9.916;2022-11-11T06:13:37;16.00;;;8.30;;
17796;SDS011;55596;53.554;9.916;2022-11-11T06:16:04;17.23;;;8.33;;
17796;SDS011;55596;53.554;9.916;2022-11-11T06:18:32;21.00;;;8.20;;
17796;SDS011;55596;53.554;9.916;2022-11-11T06:20:59;15.87;;;9.00;;
17796;SDS011;55596;53.554;9.916;2022-11-11T06:23:27;15.30;;;8.83;;
17796;SDS011;55596;53.554;9.916;2022-11-11T06:25:56;18.70;;;9.27;;
17796;SDS011;55596;53.554;9.916;2022-11-11T06:28:39;16.67;;;9.03;;
17796;SDS011;55596;53.554;9.916;2022-11-11T06:31:07;16.43;;;9.63;;
17796;SDS011;55596;53.554;9.916;2022-11-11T06:33:34;17.90;;;9.80;;
17796;SDS011;55596;53.554;9.916;2022-11-11T06:36:02;19.67;;;9.73;;
17796;SDS011;55596;53.554;9.916;2022-11-11T06:38:33;19.83;;;11.30;;
17796;SDS011;55596;53.554;9.916;2022-11-11T06:41:01;20.93;;;10.53;;
17796;SDS011;55596;53.554;9.916;2022-11-11T06:43:28;18.67;;;10.13;;
17796;SDS011;55596;53.554;9.916;2022-11-11T06:45:55;23.50;;;11.03;;
17796;SDS011;55596;53.554;9.916;2022-11-11T06:48:23;19.60;;;11.40;;
17796;SDS011;55596;53.554;9.916;2022-11-11T06:50:51;20.60;;;11.37;;
17796;SDS011;55596;53.554;9.916;2022-11-11T06:53:19;23.40;;;10.97;;
17796;SDS011;55596;53.554;9.916;2022-11-11T06:55:47;19.00;;;11.63;;
17796;SDS011;55596;53.554;9.916;2022-11-11T06:58:18;21.80;;;11.03;;
17796;SDS011;55596;53.554;9.916;2022-11-11T07:00:46;24.80;;;12.20;;
17796;SDS011;55596;53.554;9.916;2022-11-11T07:03:14;25.20;;;11.70;;
17796;SDS011;55596;53.554;9.916;2022-11-11T07:05:43;18.70;;;11.70;;
17796;SDS011;55596;53.554;9.916;2022-11-11T07:08:11;20.43;;;11.67;;
17796;SDS011;55596;53.554;9.916;2022-11-11T07:10:42;21.93;;;11.67;;
17796;SDS011;55596;53.554;9.916;2022-11-11T07:13:11;23.97;;;11.63;;
17796;SDS011;55596;53.554;9.916;2022-11-11T07:15:40;19.87;;;11.57;;
17796;SDS011;55596;53.554;9.916;2022-11-11T07:18:09;19.87;;;11.90;;
17796;SDS011;55596;53.554;9.916;2022-11-11T07:20:42;28.50;;;11.53;;
17796;SDS011;55596;53.554;9.916;2022-11-11T07:23:09;23.00;;;12.47;;
17796;SDS011;55596;53.554;9.916;2022-11-11T07:25:36;23.50;;;12.13;;
17796;SDS011;55596;53.554;9.916;2022-11-11T07:28:03;21.07;;;12.73;;
17796;SDS011;55596;53.554;9.916;2022-11-11T07:30:35;27.77;;;12.70;;
17796;SDS011;55596;53.554;9.916;2022-11-11T07:33:05;27.83;;;13.57;;
17796;SDS011;55596;53.554;9.916;2022-11-11T07:35:32;26.37;;;13.87;;
17796;SDS011;55596;53.554;9.916;2022-11-11T07:38:00;25.40;;;12.97;;
17796;SDS011;55596;53.554;9.916;2022-11-11T07:40:28;24.60;;;13.77;;
17796;SDS011;55596;53.554;9.916;2022-11-11T07:42:55;21.00;;;13.20;;
17796;SDS011;55596;53.554;9.916;2022-11-11T07:45:22;25.40;;;14.00;;
17796;SDS011;55596;53.554;9.916;2022-11-11T07:47:50;33.30;;;14.63;;
17796;SDS011;55596;53.554;9.916;2022-11-11T07:50:20;28.03;;;13.20;;
17796;SDS011;55596;53.554;9.916;2022-11-11T07:52:47;28.13;;;14.93;;
17796;SDS011;55596;53.554;9.916;2022-11-11T07:55:14;26.83;;;14.73;;
17796;SDS011;55596;53.554;9.916;2022-11-11T07:57:41;28.47;;;14.57;;
17796;SDS011;55596;53.554;9.916;2022-11-11T08:00:09;27.57;;;14.90;;
17796;SDS011;55596;53.554;9.916;2022-11-11T08:02:37;30.53;;;15.53;;
17796;SDS011;55596;53.554;9.916;2022-11-11T08:05:04;25.10;;;14.90;;
17796;SDS011;55596;53.554;9.916;2022-11-11T08:07:34;26.20;;;15.20;;
17796;SDS011;55596;53.554;9.916;2022-11-11T08:10:01;21.37;;;14.77;;
17796;SDS011;55596;53.554;9.916;2022-11-11T08:12:29;27.50;;;15.03;;
17796;SDS011;55596;53.554;9.916;2022-11-11T08:15:14;28.23;;;15.50;;
17796;SDS011;55596;53.554;9.916;2022-11-11T08:17:41;23.30;;;14.17;;
17796;SDS011;55596;53.554;9.916;2022-11-11T08:20:08;24.93;;;15.03;;
17796;SDS011;55596;53.554;9.916;2022-11-11T08:22:38;20.57;;;15.13;;
17796;SDS011;55596;53.554;9.916;2022-11-11T08:25:06;23.67;;;14.57;;
17796;SDS011;55596;53.554;9.916;2022-11-11T08:27:35;24.80;;;14.40;;
17796;SDS011;55596;53.554;9.916;2022-11-11T08:30:03;22.43;;;14.40;;
17796;SDS011;55596;53.554;9.916;2022-11-11T08:32:32;25.33;;;14.20;;
17796;SDS011;55596;53.554;9.916;2022-11-11T08:34:59;27.37;;;14.73;;
17796;SDS011;55596;53.554;9.916;2022-11-11T08:37:26;26.37;;;15.53;;
17796;SDS011;55596;53.554;9.916;2022-11-11T08:39:56;23.30;;;14.20;;
17796;SDS011;55596;53.554;9.916;2022-11-11T08:42:23;25.47;;;14.97;;
17796;SDS011;55596;53.554;9.916;2022-11-11T08:44:51;23.77;;;14.17;;
17796;SDS011;55596;53.554;9.916;2022-11-11T08:47:18;24.30;;;14.97;;
17796;SDS011;55596;53.554;9.916;2022-11-11T08:49:46;28.40;;;15.00;;
17796;SDS011;55596;53.554;9.916;2022-11-11T08:52:15;22.00;;;13.87;;
17796;SDS011;55596;53.554;9.916;2022-11-11T08:54:42;29.90;;;15.27;;
17796;SDS011;55596;53.554;9.916;2022-11-11T08:57:10;22.67;;;14.67;;
17796;SDS011;55596;53.554;9.916;2022-11-11T08:59:37;26.17;;;15.37;;
17796;SDS011;55596;53.554;9.916;2022-11-11T09:02:05;27.67;;;16.43;;
17796;SDS011;55596;53.554;9.916;2022-11-11T09:04:32;23.40;;;15.73;;
17796;SDS011;55596;53.554;9.916;2022-11-11T09:06:59;28.33;;;15.67;;
17796;SDS011;55596;53.554;9.916;2022-11-11T09:09:26;27.57;;;15.90;;
17796;SDS011;55596;53.554;9.916;2022-11-11T09:11:53;25.00;;;15.60;;
17796;SDS011;55596;53.554;9.916;2022-11-11T09:14:22;24.67;;;15.23;;
17796;SDS011;55596;53.554;9.916;2022-11-11T09:16:50;30.40;;;15.57;;
17796;SDS011;55596;53.554;9.916;2022-11-11T09:19:21;25.93;;;15.57;;
17796;SDS011;55596;53.554;9.916;2022-11-11T09:21:49;34.20;;;15.30;;
17796;SDS011;55596;53.554;9.916;2022-11-11T09:24:17;25.87;;;15.50;;
17796;SDS011;55596;53.554;9.916;2022-11-11T09:26:47;26.13;;;15.77;;
17796;SDS011;55596;53.554;9.916;2022-11-11T09:29:14;23.37;;;15.17;;
17796;SDS011;55596;53.554;9.916;2022-11-11T09:31:43;23.00;;;14.67;;
17796;SDS011;55596;53.554;9.916;2022-11-11T09:34:11;25.67;;;14.77;;
17796;SDS011;55596;53.554;9.916;2022-11-11T09:36:39;22.93;;;14.57;;
17796;SDS011;55596;53.554;9.916;2022-11-11T09:39:10;22.03;;;14.80;;
17796;SDS011;55596;53.554;9.916;2022-11-11T09:41:41;22.00;;;13.73;;
17796;SDS011;55596;53.554;9.916;2022-11-11T09:44:27;23.80;;;13.97;;
17796;SDS011;55596;53.554;9.916;2022-11-11T09:47:09;23.87;;;14.10;;
17796;SDS011;55596;53.554;9.916;2022-11-11T09:49:46;27.13;;;15.27;;
17796;SDS011;55596;53.554;9.916;2022-11-11T09:52:22;28.23;;;15.00;;
17796;SDS011;55596;53.554;9.916;2022-11-11T09:54:54;25.60;;;13.90;;
17796;SDS011;55596;53.554;9.916;2022-11-11T09:57:27;20.90;;;14.57;;
17796;SDS011;55596;53.554;9.916;2022-11-11T10:00:00;22.07;;;14.30;;
17796;SDS011;55596;53.554;9.916;2022-11-11T10:02:34;24.70;;;13.57;;
17796;SDS011;55596;53.554;9.916;2022-11-11T10:05:08;21.00;;;14.07;;
17796;SDS011;55596;53.554;9.916;2022-11-11T10:07:39;23.80;;;14.23;;
17796;SDS011;55596;53.554;9.916;2022-11-11T10:10:19;19.87;;;14.80;;
17796;SDS011;55596;53.554;9.916;2022-11-11T10:12:52;17.13;;;12.97;;
17796;SDS011;55596;53.554;9.916;2022-11-11T10:15:22;20.03;;;14.70;;
17796;SDS011;55596;53.554;9.916;2022-11-11T10:18:03;25.67;;;14.20;;
17796;SDS011;55596;53.554;9.916;2022-11-11T10:20:41;21.83;;;14.03;;
17796;SDS011;55596;53.554;9.916;2022-11-11T10:23:13;21.73;;;13.53;;
17796;SDS011;55596;53.554;9.916;2022-11-11T10:25:44;23.03;;;14.27;;
17796;SDS011;55596;53.554;9.916;2022-11-11T10:28:17;25.93;;;14.40;;
17796;SDS011;55596;53.554;9.916;2022-11-11T10:30:46;21.23;;;13.47;;
17796;SDS011;55596;53.554;9.916;2022-11-11T10:33:17;21.57;;;13.83;;
17796;SDS011;55596;53.554;9.916;2022-11-11T10:35:49;22.20;;;13.73;;
17796;SDS011;55596;53.554;9.916;2022-11-11T10:38:25;22.97;;;14.37;;
17796;SDS011;55596;53.554;9.916;2022-11-11T10:41:03;21.87;;;13.60;;
17796;SDS011;55596;53.554;9.916;2022-11-11T10:43:38;21.17;;;12.53;;
17796;SDS011;55596;53.554;9.916;2022-11-11T10:46:11;22.37;;;13.80;;
17796;SDS011;55596;53.554;9.916;2022-11-11T10:48:47;19.93;;;12.63;;
17796;SDS011;55596;53.554;9.916;2022-11-11T10:51:18;21.50;;;12.70;;
17796;SDS011;55596;53.554;9.916;2022-11-11T10:53:48;23.47;;;13.17;;
17796;SDS011;55596;53.554;9.916;2022-11-11T10:56:24;23.33;;;13.03;;
17796;SDS011;55596;53.554;9.916;2022-11-11T10:58:55;24.77;;;13.67;;
17796;SDS011;55596;53.554;9.916;2022-11-11T11:01:29;20.63;;;12.60;;
17796;SDS011;55596;53.554;9.916;2022-11-11T11:04:02;21.23;;;12.80;;
17796;SDS011;55596;53.554;9.916;2022-11-11T11:06:34;19.20;;;12.70;;
17796;SDS011;55596;53.554;9.916;2022-11-11T11:09:06;21.87;;;13.90;;
17796;SDS011;55596;53.554;9.916;2022-11-11T11:11:38;23.50;;;13.87;;
17796;SDS011;55596;53.554;9.916;2022-11-11T11:14:12;21.40;;;13.20;;
17796;SDS011;55596;53.554;9.916;2022-11-11T11:16:45;22.57;;;12.90;;
17796;SDS011;55596;53.554;9.916;2022-11-11T11:19:22;21.90;;;13.87;;
17796;SDS011;55596;53.554;9.916;2022-11-11T11:21:50;17.50;;;11.90;;
17796;SDS011;55596;53.554;9.916;2022-11-11T11:24:19;18.83;;;12.97;;
17796;SDS011;55596;53.554;9.916;2022-11-11T11:26:49;22.63;;;13.73;;
17796;SDS011;55596;53.554;9.916;2022-11-11T11:29:28;20.33;;;13.13;;
17796;SDS011;55596;53.554;9.916;2022-11-11T11:34:48;22.97;;;13.07;;
17796;SDS011;55596;53.554;9.916;2022-11-11T11:37:17;24.77;;;14.13;;
17796;SDS011;55596;53.554;9.916;2022-11-11T11:39:46;22.30;;;13.53;;
17796;SDS011;55596;53.554;9.916;2022-11-11T11:42:27;24.83;;;14.13;;
17796;SDS011;55596;53.554;9.916;2022-11-11T11:44:56;19.27;;;14.00;;
17796;SDS011;55596;53.554;9.916;2022-11-11T11:47:33;18.07;;;13.37;;
17796;SDS011;55596;53.554;9.916;2022-11-11T11:53:06;22.00;;;14.13;;
17796;SDS011;55596;53.554;9.916;2022-11-11T11:55:45;27.27;;;15.07;;
17796;SDS011;55596;53.554;9.916;2022-11-11T11:58:25;21.53;;;14.57;;
17796;SDS011;55596;53.554;9.916;2022-11-11T12:01:03;17.83;;;14.10;;
17796;SDS011;55596;53.554;9.916;2022-11-11T12:06:46;23.57;;;14.93;;
17796;SDS011;55596;53.554;9.916;2022-11-11T12:09:35;25.20;;;14.73;;
17796;SDS011;55596;53.554;9.916;2022-11-11T12:12:17;25.80;;;14.83;;
17796;SDS011;55596;53.554;9.916;2022-11-11T12:14:58;20.37;;;14.93;;
17796;SDS011;55596;53.554;9.916;2022-11-11T12:17:40;21.97;;;14.90;;
17796;SDS011;55596;53.554;9.916;2022-11-11T12:20:16;19.40;;;14.23;;
17796;SDS011;55596;53.554;9.916;2022-11-11T12:22:53;19.30;;;14.03;;
17796;SDS011;55596;53.554;9.916;2022-11-11T12:25:33;20.27;;;13.63;;
17796;SDS011;55596;53.554;9.916;2022-11-11T12:28:18;19.73;;;14.30;;
17796;SDS011;55596;53.554;9.916;2022-11-11T12:30:56;22.47;;;13.67;;
17796;SDS011;55596;53.554;9.916;2022-11-11T12:33:48;21.50;;;13.63;;
17796;SDS011;55596;53.554;9.916;2022-11-11T12:36:34;18.10;;;12.63;;
17796;SDS011;55596;53.554;9.916;2022-11-11T12:39:21;18.00;;;13.23;;
17796;SDS011;55596;53.554;9.916;2022-11-11T12:42:03;17.53;;;12.33;;
17796;SDS011;55596;53.554;9.916;2022-11-11T12:44:41;16.00;;;12.20;;
17796;SDS011;55596;53.554;9.916;2022-11-11T12:47:21;19.47;;;12.23;;
17796;SDS011;55596;53.554;9.916;2022-11-11T12:49:57;23.30;;;12.80;;
17796;SDS011;55596;53.554;9.916;2022-11-11T12:52:37;16.33;;;12.30;;
17796;SDS011;55596;53.554;9.916;2022-11-11T12:55:17;19.90;;;13.03;;
17796;SDS011;55596;53.554;9.916;2022-11-11T12:58:02;17.80;;;12.97;;
17796;SDS011;55596;53.554;9.916;2022-11-11T13:00:36;19.10;;;12.40;;
17796;SDS011;55596;53.554;9.916;2022-11-11T13:03:21;17.93;;;13.57;;
17796;SDS011;55596;53.554;9.916;2022-11-11T13:06:04;18.90;;;12.87;;
17796;SDS011;55596;53.554;9.916;2022-11-11T13:11:44;15.43;;;13.37;;
17796;SDS011;55596;53.554;9.916;2022-11-11T13:14:33;16.53;;;13.47;;
17796;SDS011;55596;53.554;9.916;2022-11-11T13:17:12;18.07;;;13.47;;
17796;SDS011;55596;53.554;9.916;2022-11-11T13:19:41;17.17;;;13.93;;
17796;SDS011;55596;53.554;9.916;2022-11-11T13:22:14;16.90;;;13.80;;
17796;SDS011;55596;53.554;9.916;2022-11-11T13:24:47;20.10;;;14.53;;
17796;SDS011;55596;53.554;9.916;2022-11-11T13:27:18;15.50;;;13.33;;
17796;SDS011;55596;53.554;9.916;2022-11-11T13:29:58;16.97;;;13.53;;
17796;SDS011;55596;53.554;9.916;2022-11-11T13:32:52;18.10;;;13.90;;
17796;SDS011;55596;53.554;9.916;2022-11-11T13:35:24;16.97;;;14.37;;
17796;SDS011;55596;53.554;9.916;2022-11-11T13:37:55;16.83;;;13.63;;
17796;SDS011;55596;53.554;9.916;2022-11-11T13:43:16;22.47;;;14.97;;
17796;SDS011;55596;53.554;9.916;2022-11-11T13:45:49;16.20;;;14.27;;
17796;SDS011;55596;53.554;9.916;2022-11-11T13:48:18;16.87;;;14.40;;
17796;SDS011;55596;53.554;9.916;2022-11-11T13:50:49;15.97;;;13.43;;
17796;SDS011;55596;53.554;9.916;2022-11-11T13:53:23;17.83;;;14.33;;
17796;SDS011;55596;53.554;9.916;2022-11-11T13:55:53;16.10;;;13.33;;
17796;SDS011;55596;53.554;9.916;2022-11-11T13:58:29;19.33;;;13.63;;
17796;SDS011;55596;53.554;9.916;2022-11-11T14:00:59;22.27;;;14.77;;
17796;SDS011;55596;53.554;9.916;2022-11-11T14:03:35;20.20;;;13.80;;
17796;SDS011;55596;53.554;9.916;2022-11-11T14:12:32;15.03;;;13.33;;
17796;SDS011;55596;53.554;9.916;2022-11-11T14:15:04;20.67;;;14.47;;
17796;SDS011;55596;53.554;9.916;2022-11-11T14:17:51;19.07;;;13.57;;
17796;SDS011;55596;53.554;9.916;2022-11-11T14:20:37;19.73;;;14.50;;
17796;SDS011;55596;53.554;9.916;2022-11-11T14:23:19;16.63;;;13.30;;
17796;SDS011;55596;53.554;9.916;2022-11-11T14:25:51;23.03;;;13.50;;
17796;SDS011;55596;53.554;9.916;2022-11-11T14:28:48;18.63;;;13.40;;
17796;SDS011;55596;53.554;9.916;2022-11-11T14:31:33;20.07;;;14.87;;
17796;SDS011;55596;53.554;9.916;2022-11-11T14:34:31;15.40;;;13.43;;
17796;SDS011;55596;53.554;9.916;2022-11-11T14:37:24;17.67;;;13.50;;
17796;SDS011;55596;53.554;9.916;2022-11-11T14:40:03;18.03;;;13.90;;
17796;SDS011;55596;53.554;9.916;2022-11-11T14:42:44;15.83;;;14.13;;
17796;SDS011;55596;53.554;9.916;2022-11-11T14:54:17;16.67;;;13.47;;
17796;SDS011;55596;53.554;9.916;2022-11-11T14:56:54;15.03;;;13.17;;
17796;SDS011;55596;53.554;9.916;2022-11-11T14:59:25;20.47;;;14.07;;
17796;SDS011;55596;53.554;9.916;2022-11-11T15:01:54;14.13;;;12.50;;
17796;SDS011;55596;53.554;9.916;2022-11-11T15:04:24;18.40;;;14.53;;
17796;SDS011;55596;53.554;9.916;2022-11-11T15:06:54;15.73;;;14.03;;
17796;SDS011;55596;53.554;9.916;2022-11-11T15:09:30;14.87;;;13.23;;
17796;SDS011;55596;53.554;9.916;2022-11-11T15:12:32;19.87;;;14.03;;
17796;SDS011;55596;53.554;9.916;2022-11-11T15:15:08;19.43;;;14.47;;
17796;SDS011;55596;53.554;9.916;2022-11-11T15:17:42;19.00;;;13.83;;
17796;SDS011;55596;53.554;9.916;2022-11-11T15:20:25;15.73;;;13.63;;
17796;SDS011;55596;53.554;9.916;2022-11-11T15:23:02;14.63;;;13.03;;
17796;SDS011;55596;53.554;9.916;2022-11-11T15:25:43;18.87;;;13.50;;
17796;SDS011;55596;53.554;9.916;2022-11-11T15:31:19;18.87;;;13.40;;
17796;SDS011;55596;53.554;9.916;2022-11-11T15:33:52;16.07;;;12.70;;